createdAt,value
2018-04-19T00:01:32.151Z,56.50
2018-04-19T00:03:59.656Z,57.30
2018-04-19T00:06:27.549Z,57.70
2018-04-19T00:09:02.908Z,57.60
2018-04-19T00:11:30.816Z,57.80
2018-04-19T00:13:58.343Z,57.80
2018-04-19T00:16:25.857Z,57.50
2018-04-19T00:18:53.443Z,57.60
2018-04-19T00:21:21.049Z,57.60
2018-04-19T00:23:49.039Z,58.10
2018-04-19T00:26:16.939Z,57.90
2018-04-19T00:28:44.468Z,57.90
2018-04-19T00:31:11.983Z,58.10
2018-04-19T00:33:39.501Z,58.40
2018-04-19T00:36:06.999Z,58.70
2018-04-19T00:38:34.497Z,58.80
2018-04-19T00:41:02.019Z,58.20
2018-04-19T00:43:30.017Z,58.00
2018-04-19T00:45:57.937Z,58.00
2018-04-19T00:48:25.445Z,58.00
2018-04-19T00:50:52.981Z,58.00
2018-04-19T00:53:20.877Z,58.10
2018-04-19T00:55:48.793Z,58.10
2018-04-19T00:58:16.353Z,58.20
2018-04-19T01:00:44.348Z,58.20
2018-04-19T01:03:12.341Z,58.10
2018-04-19T01:05:40.253Z,58.10
2018-04-19T01:08:07.761Z,58.10
2018-04-19T01:10:35.291Z,58.20
2018-04-19T01:13:03.299Z,58.40
2018-04-19T01:15:31.195Z,58.10
2018-04-19T01:17:59.092Z,58.10
2018-04-19T01:20:27.001Z,58.30
2018-04-19T01:22:54.504Z,58.30
2018-04-19T01:25:22.016Z,58.60
2018-04-19T01:27:49.547Z,58.50
2018-04-19T01:30:17.070Z,58.70
2018-04-19T01:32:44.563Z,58.60
2018-04-19T01:35:12.178Z,58.80
2018-04-19T01:37:40.129Z,58.50
2018-04-19T01:40:07.646Z,58.50
2018-04-19T01:42:35.239Z,58.50
2018-04-19T01:45:02.761Z,58.30
2018-04-19T01:47:30.274Z,58.40
2018-04-19T01:49:57.890Z,58.50
2018-04-19T01:52:25.796Z,58.80
2018-04-19T01:54:53.308Z,58.80
2018-04-19T01:57:20.809Z,58.60
2018-04-19T01:59:48.330Z,58.80
2018-04-19T02:02:15.829Z,58.90
2018-04-19T02:04:43.739Z,58.70
2018-04-19T02:07:11.266Z,58.70
2018-04-19T02:09:38.793Z,58.70
2018-04-19T02:12:06.762Z,58.80
2018-04-19T02:14:34.279Z,58.80
2018-04-19T02:17:01.840Z,58.60
2018-04-19T02:19:29.828Z,58.70
2018-04-19T02:21:57.342Z,58.70
2018-04-19T02:24:24.857Z,58.60
2018-04-19T02:26:52.469Z,58.60
2018-04-19T02:29:20.062Z,58.70
2018-04-19T02:31:47.553Z,58.80
2018-04-19T02:34:15.077Z,58.70
2018-04-19T02:36:42.615Z,58.70
2018-04-19T02:39:10.112Z,58.80
2018-04-19T02:41:38.094Z,58.80
2018-04-19T02:44:05.693Z,58.80
2018-04-19T02:46:33.600Z,58.90
2018-04-19T02:49:01.177Z,58.90
2018-04-19T02:51:28.745Z,58.70
2018-04-19T02:53:56.241Z,58.80
2018-04-19T02:56:24.148Z,59.10
2018-04-19T02:58:51.636Z,59.00
2018-04-19T03:01:19.193Z,58.80
2018-04-19T03:03:47.075Z,59.20
2018-04-19T03:06:14.588Z,59.20
2018-04-19T03:08:42.087Z,59.20
2018-04-19T03:11:09.605Z,59.20
2018-04-19T03:13:37.117Z,59.20
2018-04-19T03:16:04.639Z,59.30
2018-04-19T03:18:32.147Z,59.50
2018-04-19T03:20:59.667Z,59.50
2018-04-19T03:23:27.555Z,59.60
2018-04-19T03:25:55.135Z,59.60
2018-04-19T03:28:22.633Z,59.90
2018-04-19T03:30:50.545Z,59.70
2018-04-19T03:33:18.031Z,59.70
2018-04-19T03:35:45.543Z,59.80
2018-04-19T03:38:13.045Z,59.90
2018-04-19T03:40:40.691Z,60.00
2018-04-19T03:43:08.247Z,60.50
2018-04-19T03:45:36.167Z,60.50
2018-04-19T03:48:03.725Z,60.50
2018-04-19T03:50:31.641Z,60.80
2018-04-19T03:52:59.132Z,60.80
2018-04-19T03:55:26.649Z,60.70
2018-04-19T03:57:54.149Z,60.90
2018-04-19T04:00:21.739Z,61.10
2018-04-19T04:02:49.741Z,61.70
2018-04-19T04:05:17.262Z,61.70
2018-04-19T04:07:44.803Z,61.70
2018-04-19T04:10:12.313Z,62.10
2018-04-19T04:12:40.205Z,62.40
2018-04-19T04:15:07.724Z,62.40
2018-04-19T04:17:47.171Z,62.50
2018-04-19T04:20:26.699Z,62.40
2018-04-19T04:23:05.388Z,62.80
2018-04-19T04:25:32.919Z,62.60
2018-04-19T04:28:00.422Z,62.90
2018-04-19T04:30:28.336Z,63.20
2018-04-19T04:32:55.837Z,63.20
2018-04-19T04:35:23.347Z,63.20
2018-04-19T04:37:50.849Z,63.30
2018-04-19T04:40:18.372Z,63.10
2018-04-19T04:42:45.936Z,63.30
2018-04-19T04:45:13.839Z,63.50
2018-04-19T04:47:41.362Z,63.50
2018-04-19T04:50:08.898Z,63.50
2018-04-19T04:52:36.805Z,63.70
2018-04-19T04:55:04.300Z,63.70
2018-04-19T04:57:31.847Z,63.60
2018-04-19T04:59:59.745Z,63.60
2018-04-19T05:02:27.665Z,63.60
2018-04-19T05:04:55.155Z,63.60
2018-04-19T05:07:22.669Z,63.70
2018-04-19T05:09:50.168Z,63.70
2018-04-19T05:12:17.675Z,63.50
2018-04-19T05:14:45.560Z,63.80
2018-04-19T05:17:13.459Z,63.70
2018-04-19T05:19:41.342Z,63.40
2018-04-19T05:22:09.250Z,63.20
2018-04-19T05:24:37.247Z,63.20
2018-04-19T05:27:05.176Z,63.00
2018-04-19T05:29:32.685Z,63.00
2018-04-19T05:32:00.208Z,62.60
2018-04-19T05:34:28.175Z,62.40
2018-04-19T05:36:55.693Z,62.40
2018-04-19T05:39:23.178Z,62.50
2018-04-19T05:41:50.737Z,62.20
2018-04-19T05:44:18.627Z,61.90
2018-04-19T05:46:46.150Z,61.90
2018-04-19T05:49:13.653Z,62.10
2018-04-19T05:51:41.171Z,62.00
2018-04-19T05:54:08.787Z,61.90
2018-04-19T05:56:36.291Z,61.70
2018-04-19T05:59:03.779Z,61.40
2018-04-19T06:01:31.745Z,60.90
2018-04-19T06:03:59.240Z,60.40
2018-04-19T06:06:26.766Z,60.00
2018-04-19T06:08:54.255Z,59.70
2018-04-19T06:11:21.861Z,61.50
2018-04-19T06:13:49.353Z,58.00
2018-04-19T06:16:17.256Z,56.90
2018-04-19T06:18:45.135Z,56.70
2018-04-19T06:21:13.115Z,56.60
2018-04-19T06:23:40.714Z,56.60
2018-04-19T06:26:08.613Z,55.30
2018-04-19T06:28:36.525Z,54.90
2018-04-19T06:31:04.090Z,54.90
2018-04-19T06:33:32.013Z,53.70
2018-04-19T06:35:59.572Z,53.70
2018-04-19T06:38:27.083Z,53.40
2018-04-19T06:40:54.781Z,53.40
2018-04-19T06:43:22.313Z,53.20
2018-04-19T06:45:50.215Z,52.60
2018-04-19T06:48:18.125Z,52.50
2018-04-19T06:50:45.620Z,52.50
2018-04-19T06:53:13.164Z,52.70
2018-04-19T06:55:40.665Z,53.60
2018-04-19T06:58:08.576Z,52.30
2018-04-19T07:00:36.132Z,52.30
2018-04-19T07:03:04.121Z,52.30
2018-04-19T07:05:32.017Z,51.80
2018-04-19T07:07:59.933Z,51.80
2018-04-19T07:10:27.420Z,51.80
2018-04-19T07:12:54.961Z,50.80
2018-04-19T07:15:22.561Z,50.40
2018-04-19T07:17:50.475Z,50.40
2018-04-19T07:20:18.028Z,50.40
2018-04-19T07:22:45.545Z,51.50
2018-04-19T07:25:13.104Z,51.30
2018-04-19T07:27:40.618Z,50.80
2018-04-19T07:30:08.125Z,48.60
2018-04-19T07:32:35.636Z,50.00
2018-04-19T07:35:03.232Z,49.80
2018-04-19T07:37:30.844Z,48.70
2018-04-19T07:39:58.336Z,48.70
2018-04-19T07:42:25.888Z,48.80
2018-04-19T07:44:53.375Z,47.70
2018-04-19T07:47:20.969Z,47.70
2018-04-19T07:49:48.851Z,47.70
2018-04-19T07:52:16.858Z,47.90
2018-04-19T07:54:44.744Z,47.70
2018-04-19T07:57:12.638Z,47.60
2018-04-19T07:59:40.534Z,47.70
2018-04-19T08:02:08.451Z,47.60
2018-04-19T08:04:36.009Z,47.60
2018-04-19T08:07:03.916Z,46.80
2018-04-19T08:09:31.435Z,46.80
2018-04-19T08:11:58.977Z,47.70
2018-04-19T08:14:26.880Z,45.20
2018-04-19T08:16:54.441Z,45.20
2018-04-19T08:19:22.442Z,45.20
2018-04-19T08:21:50.333Z,45.90
2018-04-19T08:24:18.235Z,43.90
2018-04-19T08:26:46.129Z,45.20
2018-04-19T08:29:14.112Z,45.10
2018-04-19T08:31:42.119Z,44.40
2018-04-19T08:34:09.643Z,44.40
2018-04-19T08:36:37.142Z,42.30
2018-04-19T08:39:04.652Z,43.20
2018-04-19T08:41:32.142Z,42.10
2018-04-19T08:44:00.050Z,41.10
2018-04-19T08:46:27.565Z,41.10
2018-04-19T08:48:55.081Z,40.30
2018-04-19T08:51:22.595Z,42.50
2018-04-19T08:53:50.568Z,40.90
2018-04-19T08:56:18.077Z,40.90
2018-04-19T08:58:45.587Z,39.80
2018-04-19T09:01:13.079Z,40.90
2018-04-19T09:03:40.597Z,40.40
2018-04-19T09:06:08.193Z,39.80
2018-04-19T09:08:36.101Z,41.20
2018-04-19T09:11:04.071Z,39.90
2018-04-19T09:13:31.645Z,39.90
2018-04-19T09:15:59.103Z,40.20
2018-04-19T09:18:26.627Z,40.80
2018-04-19T09:20:54.114Z,41.00
2018-04-19T09:23:21.630Z,40.80
2018-04-19T09:25:49.185Z,39.50
2018-04-19T09:28:17.175Z,41.70
2018-04-19T09:30:44.677Z,41.70
2018-04-19T09:33:12.592Z,39.60
2018-04-19T09:35:40.087Z,39.60
2018-04-19T09:38:07.640Z,39.90
2018-04-19T09:40:35.533Z,39.90
2018-04-19T09:43:03.437Z,39.90
2018-04-19T09:45:30.966Z,40.10
2018-04-19T09:47:58.481Z,40.70
2018-04-19T09:50:26.047Z,41.10
2018-04-19T09:52:53.547Z,41.20
2018-04-19T09:55:21.537Z,41.10
2018-04-19T09:58:01.605Z,39.70
2018-04-19T10:00:29.091Z,39.60
2018-04-19T10:02:59.230Z,39.40
2018-04-19T10:05:26.730Z,39.10
2018-04-19T10:07:54.709Z,40.20
2018-04-19T10:10:22.250Z,40.20
2018-04-19T10:12:49.727Z,41.90
2018-04-19T10:15:17.210Z,40.70
2018-04-19T10:17:44.772Z,41.30
2018-04-19T10:20:12.670Z,39.10
2018-04-19T10:22:40.170Z,39.20
2018-04-19T10:25:07.683Z,39.30
2018-04-19T10:27:35.257Z,37.40
2018-04-19T10:30:02.743Z,39.00
2018-04-19T10:32:30.260Z,39.30
2018-04-19T10:34:57.764Z,38.60
2018-04-19T10:37:25.664Z,38.10
2018-04-19T10:39:53.176Z,38.10
2018-04-19T10:42:20.673Z,38.40
2018-04-19T10:44:48.295Z,38.20
2018-04-19T10:47:15.789Z,37.60
2018-04-19T10:49:43.692Z,37.90
2018-04-19T10:52:11.583Z,36.90
2018-04-19T10:54:39.552Z,36.50
2018-04-19T10:57:07.064Z,36.50
2018-04-19T10:59:34.585Z,36.80
2018-04-19T11:02:02.087Z,37.40
2018-04-19T11:04:29.595Z,38.30
2018-04-19T11:06:57.585Z,38.10
2018-04-19T11:09:25.501Z,38.10
2018-04-19T11:11:52.991Z,38.10
2018-04-19T11:14:20.544Z,37.90
2018-04-19T11:16:48.031Z,38.20
2018-04-19T11:19:15.936Z,38.50
2018-04-19T11:21:43.837Z,38.20
2018-04-19T11:24:11.415Z,38.20
2018-04-19T11:26:38.923Z,35.20
2018-04-19T11:29:06.437Z,35.10
2018-04-19T11:31:33.937Z,34.10
2018-04-19T11:34:01.463Z,33.60
2018-04-19T11:36:28.954Z,34.00
2018-04-19T11:38:56.463Z,34.50
2018-04-19T11:41:24.071Z,34.90
2018-04-19T11:43:51.575Z,33.00
2018-04-19T11:46:19.460Z,33.50
2018-04-19T11:48:47.364Z,32.20
2018-04-19T11:51:15.348Z,33.10
2018-04-19T11:53:42.865Z,33.10
2018-04-19T11:56:10.351Z,32.70
2018-04-19T11:58:37.856Z,32.80
2018-04-19T12:01:05.411Z,33.80
2018-04-19T12:03:32.964Z,33.80
2018-04-19T12:06:00.461Z,33.40
2018-04-19T12:08:28.359Z,33.90
2018-04-19T12:10:56.335Z,33.50
2018-04-19T12:13:23.823Z,33.50
2018-04-19T12:15:51.737Z,35.00
2018-04-19T12:18:19.241Z,35.00
2018-04-19T12:20:46.766Z,33.40
2018-04-19T12:23:14.301Z,35.50
2018-04-19T12:25:41.812Z,34.90
2018-04-19T12:28:09.311Z,33.10
2018-04-19T12:30:36.925Z,33.90
2018-04-19T12:33:04.811Z,34.90
2018-04-19T12:35:32.896Z,33.20
2018-04-19T12:38:00.387Z,33.20
2018-04-19T12:40:27.900Z,33.80
2018-04-19T12:42:55.389Z,33.70
2018-04-19T12:45:22.891Z,32.20
2018-04-19T12:47:50.390Z,32.70
2018-04-19T12:50:18.014Z,33.80
2018-04-19T12:52:45.904Z,32.90
2018-04-19T12:55:13.817Z,34.40
2018-04-19T12:57:41.313Z,34.40
2018-04-19T13:00:08.833Z,33.40
2018-04-19T13:02:36.343Z,31.90
2018-04-19T13:05:03.844Z,31.90
2018-04-19T13:07:31.735Z,33.40
2018-04-19T13:09:59.648Z,33.00
2018-04-19T13:12:27.143Z,33.00
2018-04-19T13:14:54.663Z,33.90
2018-04-19T13:17:22.168Z,34.70
2018-04-19T13:19:50.161Z,34.20
2018-04-19T13:22:18.148Z,34.50
2018-04-19T13:24:45.653Z,34.50
2018-04-19T13:27:13.536Z,32.20
2018-04-19T13:29:41.571Z,33.10
2018-04-19T13:32:09.067Z,33.30
2018-04-19T13:34:36.583Z,33.30
2018-04-19T13:37:04.071Z,33.30
2018-04-19T13:39:31.610Z,33.70
2018-04-19T13:41:59.105Z,34.70
2018-04-19T13:44:26.719Z,33.40
2018-04-19T13:46:54.303Z,33.40
2018-04-19T13:49:22.233Z,35.30
2018-04-19T13:51:49.793Z,35.30
2018-04-19T13:54:17.696Z,34.20
2018-04-19T13:56:45.593Z,33.90
2018-04-19T13:59:13.579Z,33.80
2018-04-19T14:01:41.463Z,33.70
2018-04-19T14:04:08.948Z,33.70
2018-04-19T14:06:37.049Z,32.70
2018-04-19T14:09:05.739Z,34.50
2018-04-19T14:11:33.345Z,34.50
2018-04-19T14:14:01.254Z,35.10
2018-04-19T14:16:28.773Z,35.10
2018-04-19T14:18:56.273Z,33.90
2018-04-19T14:21:23.889Z,36.00
2018-04-19T14:23:51.776Z,36.20
2018-04-19T14:26:19.365Z,36.20
2018-04-19T14:28:47.252Z,35.60
2018-04-19T14:31:14.795Z,35.60
2018-04-19T14:33:42.292Z,35.20
2018-04-19T14:36:09.802Z,34.80
2018-04-19T14:38:37.300Z,34.70
2018-04-19T14:41:04.824Z,35.40
2018-04-19T14:43:32.363Z,35.10
2018-04-19T14:46:00.339Z,35.20
2018-04-19T14:48:27.824Z,35.20
2018-04-19T14:50:55.337Z,34.70
2018-04-19T14:53:22.831Z,36.80
2018-04-19T14:55:50.388Z,36.20
2018-04-19T14:58:18.331Z,34.60
2018-04-19T15:00:45.893Z,34.60
2018-04-19T15:03:13.847Z,34.80
2018-04-19T15:05:41.365Z,34.80
2018-04-19T15:08:08.869Z,36.80
2018-04-19T15:10:36.390Z,35.20
2018-04-19T15:13:03.879Z,35.50
2018-04-19T15:15:31.383Z,34.20
2018-04-19T15:17:59.271Z,36.40
2018-04-19T15:20:27.255Z,34.90
2018-04-19T15:22:54.743Z,34.90
2018-04-19T15:25:22.333Z,35.40
2018-04-19T15:27:50.330Z,34.40
2018-04-19T15:30:18.245Z,35.80
2018-04-19T15:32:45.740Z,35.80
2018-04-19T15:35:13.293Z,36.40
2018-04-19T15:37:41.195Z,35.80
2018-04-19T15:40:09.100Z,35.40
2018-04-19T15:42:36.630Z,35.40
2018-04-19T15:45:04.145Z,34.80
2018-04-19T15:47:32.049Z,35.80
2018-04-19T15:49:59.626Z,35.80
2018-04-19T15:52:27.525Z,36.30
2018-04-19T15:54:55.437Z,35.30
2018-04-19T15:57:22.943Z,35.30
2018-04-19T15:59:50.431Z,36.80
2018-04-19T16:02:17.932Z,35.90
2018-04-19T16:04:45.415Z,35.40
2018-04-19T16:07:13.021Z,36.80
2018-04-19T16:09:40.958Z,36.20
2018-04-19T16:12:08.508Z,36.20
2018-04-19T16:14:36.399Z,37.00
2018-04-19T16:17:04.427Z,35.80
2018-04-19T16:19:32.280Z,36.40
2018-04-19T16:22:00.193Z,36.80
2018-04-19T16:24:27.702Z,36.80
2018-04-19T16:26:55.238Z,36.50
2018-04-19T16:29:23.219Z,36.30
2018-04-19T16:31:50.749Z,36.30
2018-04-19T16:34:18.311Z,36.70
2018-04-19T16:36:46.233Z,36.50
2018-04-19T16:39:13.774Z,36.50
2018-04-19T16:41:41.279Z,37.60
2018-04-19T16:44:09.169Z,37.10
2018-04-19T16:46:37.349Z,37.30
2018-04-19T16:49:04.839Z,37.30
2018-04-19T16:51:32.795Z,37.40
2018-04-19T16:54:00.314Z,37.40
2018-04-19T16:56:28.229Z,37.10
2018-04-19T16:58:55.789Z,37.10
2018-04-19T17:01:23.694Z,37.70
2018-04-19T17:03:51.698Z,37.50
2018-04-19T17:06:19.211Z,37.50
2018-04-19T17:08:46.745Z,38.00
2018-04-19T17:11:14.661Z,37.90
2018-04-19T17:13:42.155Z,37.90
2018-04-19T17:16:09.704Z,38.10
2018-04-19T17:18:37.705Z,38.30
2018-04-19T17:21:05.682Z,38.00
2018-04-19T17:23:33.275Z,38.00
2018-04-19T17:26:00.855Z,37.60
2018-04-19T17:28:28.445Z,37.80
2018-04-19T17:30:55.954Z,37.40
2018-04-19T17:33:23.452Z,38.20
2018-04-19T17:35:50.987Z,38.50
2018-04-19T17:38:18.584Z,38.70
2018-04-19T17:40:46.164Z,38.90
2018-04-19T17:43:19.479Z,39.00
2018-04-19T17:45:46.975Z,38.70
2018-04-19T17:48:14.475Z,38.60
2018-04-19T17:50:42.376Z,38.90
2018-04-19T17:53:09.888Z,38.90
2018-04-19T17:55:37.394Z,39.60
2018-04-19T17:58:04.903Z,39.90
2018-04-19T18:00:32.794Z,41.40
2018-04-19T18:03:00.710Z,41.10
2018-04-19T18:05:28.199Z,41.10
2018-04-19T18:07:55.698Z,41.10
2018-04-19T18:10:23.183Z,41.20
2018-04-19T18:12:50.784Z,42.50
2018-04-19T18:15:18.285Z,44.70
2018-04-19T18:17:45.807Z,47.50
2018-04-19T18:20:13.797Z,47.10
2018-04-19T18:22:41.767Z,49.20
2018-04-19T18:25:09.255Z,49.20
2018-04-19T18:27:36.765Z,47.20
2018-04-19T18:30:04.732Z,51.50
2018-04-19T18:32:32.240Z,51.50
2018-04-19T18:34:59.908Z,51.80
2018-04-19T18:37:27.815Z,52.70
2018-04-19T18:39:55.699Z,52.80
2018-04-19T18:42:23.715Z,53.00
2018-04-19T18:44:51.204Z,53.00
2018-04-19T18:47:18.773Z,53.20
2018-04-19T18:49:46.760Z,54.00
2018-04-19T18:52:14.754Z,54.10
2018-04-19T18:54:42.644Z,54.00
2018-04-19T18:57:10.552Z,54.90
2018-04-19T18:59:38.430Z,54.80
2018-04-19T19:02:06.342Z,55.10
2018-04-19T19:04:33.854Z,55.10
2018-04-19T19:07:01.351Z,55.40
2018-04-19T19:09:28.873Z,54.60
2018-04-19T19:11:56.773Z,50.40
2018-04-19T19:14:24.752Z,52.70
2018-04-19T19:16:52.243Z,52.80
2018-04-19T19:19:32.129Z,48.90
2018-04-19T19:21:59.626Z,48.90
2018-04-19T19:24:27.146Z,47.90
2018-04-19T19:26:54.634Z,48.50
2018-04-19T19:29:22.254Z,46.50
2018-04-19T19:31:50.150Z,45.60
2018-04-19T19:34:18.127Z,45.30
2018-04-19T19:36:45.625Z,45.30
2018-04-19T19:39:13.539Z,45.30
2018-04-19T19:41:41.023Z,45.40
2018-04-19T19:44:08.532Z,46.00
2018-04-19T19:46:36.061Z,44.90
2018-04-19T19:49:03.992Z,45.40
2018-04-19T19:51:31.535Z,45.40
2018-04-19T19:53:59.038Z,44.60
2018-04-19T19:56:26.937Z,44.10
2018-04-19T19:58:54.452Z,44.10
2018-04-19T20:01:21.971Z,44.10
2018-04-19T20:03:49.481Z,43.10
2018-04-19T20:06:16.973Z,43.80
2018-04-19T20:08:44.523Z,43.10
2018-04-19T20:11:12.021Z,43.50
2018-04-19T20:13:39.923Z,44.00
2018-04-19T20:16:07.824Z,42.60
2018-04-19T20:18:35.397Z,42.60
2018-04-19T20:21:03.289Z,42.20
2018-04-19T20:23:31.190Z,43.40
2018-04-19T20:25:59.071Z,42.70
2018-04-19T20:28:27.048Z,42.30
2018-04-19T20:30:54.639Z,42.30
2018-04-19T20:33:22.144Z,43.60
2018-04-19T20:35:50.028Z,43.00
2018-04-19T20:38:17.942Z,42.60
2018-04-19T20:40:45.431Z,42.60
2018-04-19T20:43:12.987Z,42.90
2018-04-19T20:45:40.564Z,43.00
2018-04-19T20:48:08.067Z,42.70
2018-04-19T20:50:36.160Z,43.20
2018-04-19T20:53:04.131Z,43.20
2018-04-19T20:55:31.639Z,43.30
2018-04-19T20:57:59.554Z,44.10
2018-04-19T21:00:27.047Z,44.10
2018-04-19T21:02:54.569Z,43.90
2018-04-19T21:05:22.076Z,44.20
2018-04-19T21:07:49.957Z,44.30
2018-04-19T21:10:17.879Z,44.70
2018-04-19T21:12:45.369Z,44.80
2018-04-19T21:15:12.899Z,44.70
2018-04-19T21:17:40.397Z,44.70
2018-04-19T21:20:08.914Z,46.20
2018-04-19T21:22:36.814Z,45.50
2018-04-19T21:25:04.345Z,45.50
2018-04-19T21:27:32.240Z,48.90
2018-04-19T21:29:59.753Z,47.30
2018-04-19T21:32:27.253Z,45.80
2018-04-19T21:34:55.168Z,48.00
2018-04-19T21:37:22.662Z,48.00
2018-04-19T21:39:50.209Z,46.10
2018-04-19T21:42:18.099Z,45.40
2018-04-19T21:44:46.004Z,45.30
2018-04-19T21:47:13.984Z,46.30
2018-04-19T21:49:41.496Z,46.30
2018-04-19T21:52:09.043Z,45.70
2018-04-19T21:54:36.561Z,45.50
2018-04-19T21:57:04.060Z,46.70
2018-04-19T21:59:31.589Z,45.60
2018-04-19T22:01:59.099Z,46.20
2018-04-19T22:04:27.018Z,47.30
2018-04-19T22:06:54.563Z,47.30
2018-04-19T22:09:22.143Z,47.50
2018-04-19T22:11:49.641Z,47.10
2018-04-19T22:14:17.552Z,48.30
2018-04-19T22:16:45.120Z,48.20
2018-04-19T22:19:13.038Z,48.70
2018-04-19T22:21:40.527Z,48.80
2018-04-19T22:24:08.058Z,48.80
2018-04-19T22:26:35.547Z,48.40
2018-04-19T22:29:03.060Z,48.90
2018-04-19T22:31:30.568Z,49.20
2018-04-19T22:33:58.074Z,49.50
2018-04-19T22:36:25.578Z,49.30
2018-04-19T22:38:53.168Z,49.60
2018-04-19T22:41:20.666Z,49.40
2018-04-19T22:43:48.577Z,50.00
2018-04-19T22:46:16.077Z,50.00
2018-04-19T22:48:43.611Z,50.50
2018-04-19T22:51:11.106Z,50.50
2018-04-19T22:53:39.129Z,49.80
2018-04-19T22:56:07.088Z,50.40
2018-04-19T22:58:34.776Z,50.30
2018-04-19T23:01:02.688Z,50.40
2018-04-19T23:03:30.183Z,50.40
2018-04-19T23:05:57.688Z,51.40
2018-04-19T23:08:25.175Z,51.90
2018-04-19T23:10:52.695Z,50.50
2018-04-19T23:13:20.201Z,50.90
2018-04-19T23:15:48.100Z,51.30
2018-04-19T23:18:15.597Z,51.30
2018-04-19T23:20:43.154Z,51.50
2018-04-19T23:23:11.048Z,52.20
2018-04-19T23:25:38.947Z,51.90
2018-04-19T23:28:06.924Z,52.60
2018-04-19T23:30:34.475Z,52.60
2018-04-19T23:33:01.941Z,53.20
2018-04-19T23:35:29.451Z,53.10
2018-04-19T23:37:56.957Z,53.60
2018-04-19T23:40:24.855Z,53.20
2018-04-19T23:42:52.839Z,53.20
2018-04-19T23:45:20.353Z,53.20
2018-04-19T23:47:47.849Z,53.10
2018-04-19T23:50:15.355Z,53.30
2018-04-19T23:52:42.848Z,52.90
2018-04-19T23:55:10.359Z,53.30
2018-04-19T23:57:37.857Z,53.40
